sensor_id;sensor_type;location;lat;lon;timestamp;P1;durP1;ratioP1;P2;durP2;ratioP2
317;SDS011;146;53.448;10.228;2023-04-19T00:01:41;8.60;;;6.20;;
317;SDS011;146;53.448;10.228;2023-04-19T00:04:08;7.10;;;5.73;;
317;SDS011;146;53.448;10.228;2023-04-19T00:06:35;7.43;;;6.50;;
317;SDS011;146;53.448;10.228;2023-04-19T00:09:02;6.30;;;5.70;;
317;SDS011;146;53.448;10.228;2023-04-19T00:11:28;5.37;;;4.93;;
317;SDS011;146;53.448;10.228;2023-04-19T00:13:55;6.63;;;5.00;;
317;SDS011;146;53.448;10.228;2023-04-19T00:16:22;8.73;;;5.43;;
317;SDS011;146;53.448;10.228;2023-04-19T00:18:50;8.33;;;4.67;;
317;SDS011;146;53.448;10.228;2023-04-19T00:21:17;6.43;;;5.37;;
317;SDS011;146;53.448;10.228;2023-04-19T00:23:44;6.57;;;5.33;;
317;SDS011;146;53.448;10.228;2023-04-19T00:26:11;7.70;;;4.90;;
317;SDS011;146;53.448;10.228;2023-04-19T00:28:39;6.83;;;5.13;;
317;SDS011;146;53.448;10.228;2023-04-19T00:31:06;5.10;;;4.60;;
317;SDS011;146;53.448;10.228;2023-04-19T00:33:33;5.43;;;4.60;;
317;SDS011;146;53.448;10.228;2023-04-19T00:36:01;6.20;;;5.03;;
317;SDS011;146;53.448;10.228;2023-04-19T00:38:28;7.43;;;4.93;;
317;SDS011;146;53.448;10.228;2023-04-19T00:40:55;4.63;;;4.17;;
317;SDS011;146;53.448;10.228;2023-04-19T00:43:21;5.43;;;4.63;;
317;SDS011;146;53.448;10.228;2023-04-19T00:45:48;5.70;;;4.77;;
317;SDS011;146;53.448;10.228;2023-04-19T00:48:15;4.40;;;4.00;;
317;SDS011;146;53.448;10.228;2023-04-19T00:50:42;5.97;;;4.83;;
317;SDS011;146;53.448;10.228;2023-04-19T00:53:11;6.10;;;4.43;;
317;SDS011;146;53.448;10.228;2023-04-19T00:55:38;5.57;;;5.00;;
317;SDS011;146;53.448;10.228;2023-04-19T00:58:06;5.13;;;4.63;;
317;SDS011;146;53.448;10.228;2023-04-19T01:00:33;5.17;;;4.73;;
317;SDS011;146;53.448;10.228;2023-04-19T01:03:00;5.30;;;4.90;;
317;SDS011;146;53.448;10.228;2023-04-19T01:05:27;5.30;;;4.73;;
317;SDS011;146;53.448;10.228;2023-04-19T01:07:55;5.80;;;4.63;;
317;SDS011;146;53.448;10.228;2023-04-19T01:10:23;5.53;;;4.23;;
317;SDS011;146;53.448;10.228;2023-04-19T01:12:50;4.27;;;3.87;;
317;SDS011;146;53.448;10.228;2023-04-19T01:15:16;5.30;;;4.80;;
317;SDS011;146;53.448;10.228;2023-04-19T01:17:43;6.40;;;4.20;;
317;SDS011;146;53.448;10.228;2023-04-19T01:20:10;5.17;;;4.67;;
317;SDS011;146;53.448;10.228;2023-04-19T01:22:38;4.93;;;4.00;;
317;SDS011;146;53.448;10.228;2023-04-19T01:25:06;5.20;;;4.70;;
317;SDS011;146;53.448;10.228;2023-04-19T01:27:34;3.90;;;3.60;;
317;SDS011;146;53.448;10.228;2023-04-19T01:30:01;4.50;;;3.77;;
317;SDS011;146;53.448;10.228;2023-04-19T01:32:27;3.97;;;3.67;;
317;SDS011;146;53.448;10.228;2023-04-19T01:34:54;6.00;;;4.10;;
317;SDS011;146;53.448;10.228;2023-04-19T01:37:21;4.23;;;3.87;;
317;SDS011;146;53.448;10.228;2023-04-19T01:39:49;4.20;;;3.77;;
317;SDS011;146;53.448;10.228;2023-04-19T01:42:16;3.83;;;2.90;;
317;SDS011;146;53.448;10.228;2023-04-19T01:44:43;3.80;;;3.30;;
317;SDS011;146;53.448;10.228;2023-04-19T01:47:10;4.80;;;3.27;;
317;SDS011;146;53.448;10.228;2023-04-19T01:49:36;5.83;;;3.57;;
317;SDS011;146;53.448;10.228;2023-04-19T01:52:03;3.73;;;3.30;;
317;SDS011;146;53.448;10.228;2023-04-19T01:54:30;4.83;;;3.53;;
317;SDS011;146;53.448;10.228;2023-04-19T01:56:58;3.57;;;3.00;;
317;SDS011;146;53.448;10.228;2023-04-19T01:59:25;3.57;;;3.27;;
317;SDS011;146;53.448;10.228;2023-04-19T02:01:52;4.53;;;3.40;;
317;SDS011;146;53.448;10.228;2023-04-19T02:04:19;4.53;;;3.80;;
317;SDS011;146;53.448;10.228;2023-04-19T02:06:46;4.03;;;3.50;;
317;SDS011;146;53.448;10.228;2023-04-19T02:09:13;3.17;;;2.87;;
317;SDS011;146;53.448;10.228;2023-04-19T02:11:40;5.30;;;3.33;;
317;SDS011;146;53.448;10.228;2023-04-19T02:14:08;3.67;;;3.13;;
317;SDS011;146;53.448;10.228;2023-04-19T02:16:37;3.90;;;2.90;;
317;SDS011;146;53.448;10.228;2023-04-19T02:19:04;4.13;;;3.77;;
317;SDS011;146;53.448;10.228;2023-04-19T02:21:30;4.23;;;3.13;;
317;SDS011;146;53.448;10.228;2023-04-19T02:23:57;3.90;;;3.40;;
317;SDS011;146;53.448;10.228;2023-04-19T02:26:24;3.00;;;2.80;;
317;SDS011;146;53.448;10.228;2023-04-19T02:28:51;3.53;;;3.10;;
317;SDS011;146;53.448;10.228;2023-04-19T02:31:19;2.97;;;2.73;;
317;SDS011;146;53.448;10.228;2023-04-19T02:33:46;4.33;;;3.40;;
317;SDS011;146;53.448;10.228;2023-04-19T02:36:13;3.70;;;2.93;;
317;SDS011;146;53.448;10.228;2023-04-19T02:38:42;3.27;;;2.97;;
317;SDS011;146;53.448;10.228;2023-04-19T02:41:09;4.30;;;3.13;;
317;SDS011;146;53.448;10.228;2023-04-19T02:43:36;4.77;;;3.30;;
317;SDS011;146;53.448;10.228;2023-04-19T02:46:02;4.37;;;3.83;;
317;SDS011;146;53.448;10.228;2023-04-19T02:48:31;4.13;;;3.83;;
317;SDS011;146;53.448;10.228;2023-04-19T02:50:58;3.53;;;3.20;;
317;SDS011;146;53.448;10.228;2023-04-19T02:53:24;3.50;;;2.90;;
317;SDS011;146;53.448;10.228;2023-04-19T02:55:51;4.13;;;3.50;;
317;SDS011;146;53.448;10.228;2023-04-19T02:58:18;3.30;;;3.10;;
317;SDS011;146;53.448;10.228;2023-04-19T03:00:45;3.40;;;3.10;;
317;SDS011;146;53.448;10.228;2023-04-19T03:03:12;2.93;;;2.73;;
317;SDS011;146;53.448;10.228;2023-04-19T03:05:40;3.40;;;3.10;;
317;SDS011;146;53.448;10.228;2023-04-19T03:08:06;5.70;;;4.07;;
317;SDS011;146;53.448;10.228;2023-04-19T03:10:34;3.33;;;3.00;;
317;SDS011;146;53.448;10.228;2023-04-19T03:13:01;5.73;;;3.30;;
317;SDS011;146;53.448;10.228;2023-04-19T03:15:28;9.63;;;5.57;;
317;SDS011;146;53.448;10.228;2023-04-19T03:17:55;5.20;;;3.20;;
317;SDS011;146;53.448;10.228;2023-04-19T03:20:25;3.93;;;2.77;;
317;SDS011;146;53.448;10.228;2023-04-19T03:22:53;5.00;;;3.40;;
317;SDS011;146;53.448;10.228;2023-04-19T03:25:20;3.23;;;2.93;;
317;SDS011;146;53.448;10.228;2023-04-19T03:27:47;4.10;;;2.80;;
317;SDS011;146;53.448;10.228;2023-04-19T03:30:15;3.50;;;2.80;;
317;SDS011;146;53.448;10.228;2023-04-19T03:32:42;6.00;;;2.63;;
317;SDS011;146;53.448;10.228;2023-04-19T03:35:09;6.33;;;3.13;;
317;SDS011;146;53.448;10.228;2023-04-19T03:37:35;4.33;;;3.93;;
317;SDS011;146;53.448;10.228;2023-04-19T03:40:04;3.10;;;2.53;;
317;SDS011;146;53.448;10.228;2023-04-19T03:42:32;3.60;;;3.30;;
317;SDS011;146;53.448;10.228;2023-04-19T03:44:59;4.67;;;3.57;;
317;SDS011;146;53.448;10.228;2023-04-19T03:47:26;3.27;;;2.90;;
317;SDS011;146;53.448;10.228;2023-04-19T03:49:52;3.63;;;3.33;;
317;SDS011;146;53.448;10.228;2023-04-19T03:52:19;4.10;;;2.77;;
317;SDS011;146;53.448;10.228;2023-04-19T03:54:46;4.27;;;2.83;;
317;SDS011;146;53.448;10.228;2023-04-19T03:57:15;3.70;;;3.20;;
317;SDS011;146;53.448;10.228;2023-04-19T03:59:42;3.60;;;3.30;;
317;SDS011;146;53.448;10.228;2023-04-19T04:02:09;3.60;;;3.00;;
317;SDS011;146;53.448;10.228;2023-04-19T04:04:36;3.97;;;3.67;;
317;SDS011;146;53.448;10.228;2023-04-19T04:07:03;3.93;;;3.30;;
317;SDS011;146;53.448;10.228;2023-04-19T04:09:30;7.30;;;3.33;;
317;SDS011;146;53.448;10.228;2023-04-19T04:11:57;5.73;;;3.60;;
317;SDS011;146;53.448;10.228;2023-04-19T04:14:25;5.60;;;3.67;;
317;SDS011;146;53.448;10.228;2023-04-19T04:16:52;3.97;;;3.63;;
317;SDS011;146;53.448;10.228;2023-04-19T04:19:18;5.43;;;3.17;;
317;SDS011;146;53.448;10.228;2023-04-19T04:21:46;5.00;;;3.10;;
317;SDS011;146;53.448;10.228;2023-04-19T04:24:13;3.23;;;3.00;;
317;SDS011;146;53.448;10.228;2023-04-19T04:26:41;5.67;;;2.80;;
317;SDS011;146;53.448;10.228;2023-04-19T04:29:08;3.70;;;3.40;;
317;SDS011;146;53.448;10.228;2023-04-19T04:31:36;3.33;;;2.83;;
317;SDS011;146;53.448;10.228;2023-04-19T04:34:03;6.00;;;3.27;;
317;SDS011;146;53.448;10.228;2023-04-19T04:36:30;5.97;;;3.87;;
317;SDS011;146;53.448;10.228;2023-04-19T04:38:57;3.67;;;3.07;;
317;SDS011;146;53.448;10.228;2023-04-19T04:41:25;5.03;;;3.30;;
317;SDS011;146;53.448;10.228;2023-04-19T04:43:55;4.73;;;3.50;;
317;SDS011;146;53.448;10.228;2023-04-19T04:46:23;3.23;;;2.93;;
317;SDS011;146;53.448;10.228;2023-04-19T04:48:51;3.47;;;3.10;;
317;SDS011;146;53.448;10.228;2023-04-19T04:51:18;3.30;;;3.00;;
317;SDS011;146;53.448;10.228;2023-04-19T04:53:45;3.00;;;2.63;;
317;SDS011;146;53.448;10.228;2023-04-19T04:56:12;3.50;;;2.50;;
317;SDS011;146;53.448;10.228;2023-04-19T04:58:39;4.10;;;2.70;;
317;SDS011;146;53.448;10.228;2023-04-19T05:01:05;2.87;;;2.60;;
317;SDS011;146;53.448;10.228;2023-04-19T05:03:32;3.83;;;2.70;;
317;SDS011;146;53.448;10.228;2023-04-19T05:06:00;3.87;;;2.83;;
317;SDS011;146;53.448;10.228;2023-04-19T05:08:27;2.53;;;2.30;;
317;SDS011;146;53.448;10.228;2023-04-19T05:10:54;2.97;;;2.77;;
317;SDS011;146;53.448;10.228;2023-04-19T05:13:21;3.00;;;2.70;;
317;SDS011;146;53.448;10.228;2023-04-19T05:15:47;3.17;;;2.70;;
317;SDS011;146;53.448;10.228;2023-04-19T05:18:14;2.73;;;2.30;;
317;SDS011;146;53.448;10.228;2023-04-19T05:20:41;3.43;;;2.40;;
317;SDS011;146;53.448;10.228;2023-04-19T05:23:12;3.60;;;2.43;;
317;SDS011;146;53.448;10.228;2023-04-19T05:25:38;2.87;;;2.47;;
317;SDS011;146;53.448;10.228;2023-04-19T05:28:05;2.43;;;2.23;;
317;SDS011;146;53.448;10.228;2023-04-19T05:30:34;2.40;;;2.20;;
317;SDS011;146;53.448;10.228;2023-04-19T05:33:01;3.37;;;2.33;;
317;SDS011;146;53.448;10.228;2023-04-19T05:35:28;3.30;;;2.70;;
317;SDS011;146;53.448;10.228;2023-04-19T05:37:55;7.00;;;2.50;;
317;SDS011;146;53.448;10.228;2023-04-19T05:40:23;2.93;;;2.43;;
317;SDS011;146;53.448;10.228;2023-04-19T05:42:49;2.20;;;2.10;;
317;SDS011;146;53.448;10.228;2023-04-19T05:45:17;2.90;;;2.30;;
317;SDS011;146;53.448;10.228;2023-04-19T05:47:43;4.53;;;2.50;;
317;SDS011;146;53.448;10.228;2023-04-19T05:50:10;2.50;;;2.10;;
317;SDS011;146;53.448;10.228;2023-04-19T05:52:39;2.50;;;2.20;;
317;SDS011;146;53.448;10.228;2023-04-19T05:55:06;3.30;;;2.07;;
317;SDS011;146;53.448;10.228;2023-04-19T05:57:35;2.50;;;2.30;;
317;SDS011;146;53.448;10.228;2023-04-19T06:00:02;2.50;;;2.30;;
317;SDS011;146;53.448;10.228;2023-04-19T06:02:29;2.13;;;2.00;;
317;SDS011;146;53.448;10.228;2023-04-19T06:04:56;1.70;;;1.60;;
317;SDS011;146;53.448;10.228;2023-04-19T06:07:23;1.70;;;1.60;;
317;SDS011;146;53.448;10.228;2023-04-19T06:09:50;2.40;;;1.80;;
317;SDS011;146;53.448;10.228;2023-04-19T06:12:16;2.73;;;2.33;;
317;SDS011;146;53.448;10.228;2023-04-19T06:14:45;2.20;;;1.80;;
317;SDS011;146;53.448;10.228;2023-04-19T06:17:14;2.83;;;1.93;;
317;SDS011;146;53.448;10.228;2023-04-19T06:22:44;1.70;;;1.60;;
317;SDS011;146;53.448;10.228;2023-04-19T06:25:11;1.67;;;1.57;;
317;SDS011;146;53.448;10.228;2023-04-19T06:30:11;1.83;;;1.43;;
317;SDS011;146;53.448;10.228;2023-04-19T06:32:37;1.70;;;1.60;;
317;SDS011;146;53.448;10.228;2023-04-19T06:35:05;1.87;;;1.50;;
317;SDS011;146;53.448;10.228;2023-04-19T06:37:32;1.60;;;1.50;;
317;SDS011;146;53.448;10.228;2023-04-19T06:39:59;1.13;;;1.13;;
317;SDS011;146;53.448;10.228;2023-04-19T06:42:26;1.10;;;1.00;;
317;SDS011;146;53.448;10.228;2023-04-19T06:44:53;1.20;;;1.13;;
317;SDS011;146;53.448;10.228;2023-04-19T06:47:22;2.27;;;1.43;;
317;SDS011;146;53.448;10.228;2023-04-19T06:49:49;2.30;;;1.23;;
317;SDS011;146;53.448;10.228;2023-04-19T06:52:16;1.10;;;1.07;;
317;SDS011;146;53.448;10.228;2023-04-19T06:54:46;1.57;;;1.23;;
317;SDS011;146;53.448;10.228;2023-04-19T06:57:13;2.87;;;1.40;;
317;SDS011;146;53.448;10.228;2023-04-19T06:59:40;1.07;;;1.00;;
317;SDS011;146;53.448;10.228;2023-04-19T07:02:07;3.33;;;0.93;;
317;SDS011;146;53.448;10.228;2023-04-19T07:04:35;1.57;;;1.13;;
317;SDS011;146;53.448;10.228;2023-04-19T07:07:02;0.80;;;0.80;;
317;SDS011;146;53.448;10.228;2023-04-19T07:09:32;1.20;;;1.10;;
317;SDS011;146;53.448;10.228;2023-04-19T07:12:00;1.17;;;1.10;;
317;SDS011;146;53.448;10.228;2023-04-19T07:14:27;1.20;;;1.10;;
317;SDS011;146;53.448;10.228;2023-04-19T07:16:53;1.20;;;1.10;;
317;SDS011;146;53.448;10.228;2023-04-19T07:19:20;0.80;;;0.80;;
317;SDS011;146;53.448;10.228;2023-04-19T07:21:48;1.00;;;0.90;;
317;SDS011;146;53.448;10.228;2023-04-19T07:24:16;0.93;;;0.80;;
317;SDS011;146;53.448;10.228;2023-04-19T07:26:43;1.13;;;1.13;;
317;SDS011;146;53.448;10.228;2023-04-19T07:29:10;0.50;;;0.50;;
317;SDS011;146;53.448;10.228;2023-04-19T07:31:37;0.93;;;0.83;;
317;SDS011;146;53.448;10.228;2023-04-19T07:34:05;1.27;;;1.17;;
317;SDS011;146;53.448;10.228;2023-04-19T07:36:33;0.83;;;0.83;;
317;SDS011;146;53.448;10.228;2023-04-19T07:39:02;2.87;;;1.13;;
317;SDS011;146;53.448;10.228;2023-04-19T07:41:29;1.40;;;1.30;;
317;SDS011;146;53.448;10.228;2023-04-19T07:43:56;1.63;;;1.33;;
317;SDS011;146;53.448;10.228;2023-04-19T07:46:23;0.83;;;0.83;;
317;SDS011;146;53.448;10.228;2023-04-19T07:48:50;1.30;;;1.23;;
317;SDS011;146;53.448;10.228;2023-04-19T07:51:17;1.73;;;1.40;;
317;SDS011;146;53.448;10.228;2023-04-19T07:53:45;1.13;;;1.03;;
317;SDS011;146;53.448;10.228;2023-04-19T07:56:13;1.20;;;1.10;;
317;SDS011;146;53.448;10.228;2023-04-19T07:58:40;1.57;;;0.90;;
317;SDS011;146;53.448;10.228;2023-04-19T08:01:07;1.67;;;1.10;;
317;SDS011;146;53.448;10.228;2023-04-19T08:03:34;1.30;;;1.00;;
317;SDS011;146;53.448;10.228;2023-04-19T08:06:02;1.60;;;1.50;;
317;SDS011;146;53.448;10.228;2023-04-19T08:08:31;1.10;;;1.00;;
317;SDS011;146;53.448;10.228;2023-04-19T08:10:58;2.73;;;1.60;;
317;SDS011;146;53.448;10.228;2023-04-19T08:13:27;1.37;;;1.17;;
317;SDS011;146;53.448;10.228;2023-04-19T08:15:54;1.20;;;1.00;;
317;SDS011;146;53.448;10.228;2023-04-19T08:18:21;1.07;;;1.07;;
317;SDS011;146;53.448;10.228;2023-04-19T08:20:48;1.53;;;1.37;;
317;SDS011;146;53.448;10.228;2023-04-19T08:23:14;0.90;;;0.90;;
317;SDS011;146;53.448;10.228;2023-04-19T08:25:42;1.37;;;1.27;;
317;SDS011;146;53.448;10.228;2023-04-19T08:28:09;1.43;;;1.33;;
317;SDS011;146;53.448;10.228;2023-04-19T08:30:38;1.60;;;1.50;;
317;SDS011;146;53.448;10.228;2023-04-19T08:33:05;1.30;;;1.10;;
317;SDS011;146;53.448;10.228;2023-04-19T08:35:34;1.63;;;1.30;;
317;SDS011;146;53.448;10.228;2023-04-19T08:38:02;1.50;;;1.40;;
317;SDS011;146;53.448;10.228;2023-04-19T08:40:29;1.50;;;1.40;;
317;SDS011;146;53.448;10.228;2023-04-19T08:43:00;1.40;;;1.30;;
317;SDS011;146;53.448;10.228;2023-04-19T08:45:33;1.13;;;1.10;;
317;SDS011;146;53.448;10.228;2023-04-19T08:48:03;1.87;;;1.50;;
317;SDS011;146;53.448;10.228;2023-04-19T08:53:51;1.50;;;1.40;;
317;SDS011;146;53.448;10.228;2023-04-19T08:56:20;1.43;;;1.33;;
317;SDS011;146;53.448;10.228;2023-04-19T08:58:51;2.77;;;1.70;;
317;SDS011;146;53.448;10.228;2023-04-19T09:01:17;1.83;;;1.33;;
317;SDS011;146;53.448;10.228;2023-04-19T09:03:46;2.43;;;1.40;;
317;SDS011;146;53.448;10.228;2023-04-19T09:06:13;2.97;;;1.70;;
317;SDS011;146;53.448;10.228;2023-04-19T09:08:41;1.63;;;1.53;;
317;SDS011;146;53.448;10.228;2023-04-19T09:11:07;1.43;;;1.33;;
317;SDS011;146;53.448;10.228;2023-04-19T09:13:34;1.80;;;1.70;;
317;SDS011;146;53.448;10.228;2023-04-19T09:16:03;1.60;;;1.50;;
317;SDS011;146;53.448;10.228;2023-04-19T09:18:32;1.80;;;1.40;;
317;SDS011;146;53.448;10.228;2023-04-19T09:21:00;1.70;;;1.60;;
317;SDS011;146;53.448;10.228;2023-04-19T09:23:27;1.93;;;1.70;;
317;SDS011;146;53.448;10.228;2023-04-19T09:25:54;2.17;;;1.60;;
317;SDS011;146;53.448;10.228;2023-04-19T09:28:24;2.00;;;1.80;;
317;SDS011;146;53.448;10.228;2023-04-19T09:30:51;1.80;;;1.70;;
317;SDS011;146;53.448;10.228;2023-04-19T09:33:31;1.90;;;1.67;;
317;SDS011;146;53.448;10.228;2023-04-19T09:36:05;2.37;;;1.77;;
317;SDS011;146;53.448;10.228;2023-04-19T09:38:44;1.50;;;1.40;;
317;SDS011;146;53.448;10.228;2023-04-19T09:41:11;1.80;;;1.70;;
317;SDS011;146;53.448;10.228;2023-04-19T09:43:42;1.73;;;1.63;;
317;SDS011;146;53.448;10.228;2023-04-19T09:46:16;2.80;;;1.40;;
317;SDS011;146;53.448;10.228;2023-04-19T09:48:58;1.30;;;1.30;;
317;SDS011;146;53.448;10.228;2023-04-19T09:51:42;3.00;;;1.83;;
317;SDS011;146;53.448;10.228;2023-04-19T09:54:10;3.00;;;1.90;;
317;SDS011;146;53.448;10.228;2023-04-19T09:56:44;1.90;;;1.77;;
317;SDS011;146;53.448;10.228;2023-04-19T10:00:04;2.17;;;1.80;;
317;SDS011;146;53.448;10.228;2023-04-19T10:02:33;1.70;;;1.37;;
317;SDS011;146;53.448;10.228;2023-04-19T10:05:01;2.20;;;1.63;;
317;SDS011;146;53.448;10.228;2023-04-19T10:07:30;1.97;;;1.87;;
317;SDS011;146;53.448;10.228;2023-04-19T10:09:58;1.70;;;1.60;;
317;SDS011;146;53.448;10.228;2023-04-19T10:12:26;2.10;;;1.67;;
317;SDS011;146;53.448;10.228;2023-04-19T10:14:54;3.43;;;1.70;;
317;SDS011;146;53.448;10.228;2023-04-19T10:17:22;2.93;;;1.83;;
317;SDS011;146;53.448;10.228;2023-04-19T10:19:51;2.50;;;2.00;;
317;SDS011;146;53.448;10.228;2023-04-19T10:22:23;4.70;;;1.90;;
317;SDS011;146;53.448;10.228;2023-04-19T10:25:11;1.73;;;1.60;;
317;SDS011;146;53.448;10.228;2023-04-19T10:27:39;2.93;;;1.80;;
317;SDS011;146;53.448;10.228;2023-04-19T10:30:15;4.50;;;1.87;;
317;SDS011;146;53.448;10.228;2023-04-19T10:32:44;2.13;;;2.00;;
317;SDS011;146;53.448;10.228;2023-04-19T10:35:16;5.40;;;1.87;;
317;SDS011;146;53.448;10.228;2023-04-19T10:38:04;3.07;;;2.13;;
317;SDS011;146;53.448;10.228;2023-04-19T10:43:36;2.23;;;1.93;;
317;SDS011;146;53.448;10.228;2023-04-19T10:46:07;4.03;;;2.57;;
317;SDS011;146;53.448;10.228;2023-04-19T10:48:39;2.63;;;2.43;;
317;SDS011;146;53.448;10.228;2023-04-19T10:51:17;2.80;;;2.60;;
317;SDS011;146;53.448;10.228;2023-04-19T10:53:53;2.73;;;2.33;;
317;SDS011;146;53.448;10.228;2023-04-19T10:59:23;5.30;;;2.17;;
317;SDS011;146;53.448;10.228;2023-04-19T11:01:51;3.30;;;2.37;;
317;SDS011;146;53.448;10.228;2023-04-19T11:04:20;2.10;;;2.00;;
317;SDS011;146;53.448;10.228;2023-04-19T11:07:01;2.00;;;1.90;;
317;SDS011;146;53.448;10.228;2023-04-19T11:09:30;2.37;;;2.10;;
317;SDS011;146;53.448;10.228;2023-04-19T11:12:00;1.93;;;1.83;;
317;SDS011;146;53.448;10.228;2023-04-19T11:14:29;4.93;;;2.00;;
317;SDS011;146;53.448;10.228;2023-04-19T11:16:58;2.43;;;1.90;;
317;SDS011;146;53.448;10.228;2023-04-19T11:19:25;5.83;;;2.23;;
317;SDS011;146;53.448;10.228;2023-04-19T11:21:52;3.27;;;1.87;;
317;SDS011;146;53.448;10.228;2023-04-19T11:24:23;3.37;;;2.90;;
317;SDS011;146;53.448;10.228;2023-04-19T11:26:50;7.70;;;2.20;;
317;SDS011;146;53.448;10.228;2023-04-19T11:29:19;1.90;;;1.80;;
317;SDS011;146;53.448;10.228;2023-04-19T11:31:46;1.87;;;1.77;;
317;SDS011;146;53.448;10.228;2023-04-19T11:34:13;1.77;;;1.67;;
317;SDS011;146;53.448;10.228;2023-04-19T11:36:47;2.00;;;1.90;;
317;SDS011;146;53.448;10.228;2023-04-19T11:39:15;2.10;;;1.90;;
317;SDS011;146;53.448;10.228;2023-04-19T11:41:45;3.80;;;1.80;;
317;SDS011;146;53.448;10.228;2023-04-19T11:44:12;1.77;;;1.67;;
317;SDS011;146;53.448;10.228;2023-04-19T11:46:58;2.30;;;1.87;;
317;SDS011;146;53.448;10.228;2023-04-19T11:49:26;2.17;;;1.80;;
317;SDS011;146;53.448;10.228;2023-04-19T11:51:55;2.37;;;2.00;;
317;SDS011;146;53.448;10.228;2023-04-19T11:54:23;2.23;;;2.03;;
317;SDS011;146;53.448;10.228;2023-04-19T11:56:56;2.77;;;2.40;;
317;SDS011;146;53.448;10.228;2023-04-19T11:59:28;2.60;;;1.77;;
317;SDS011;146;53.448;10.228;2023-04-19T12:02:04;2.03;;;1.83;;
317;SDS011;146;53.448;10.228;2023-04-19T12:04:34;1.80;;;1.70;;
317;SDS011;146;53.448;10.228;2023-04-19T12:07:02;1.90;;;1.73;;
317;SDS011;146;53.448;10.228;2023-04-19T12:09:31;2.63;;;1.57;;
317;SDS011;146;53.448;10.228;2023-04-19T12:11:59;2.07;;;1.80;;
317;SDS011;146;53.448;10.228;2023-04-19T12:14:27;2.13;;;2.00;;
317;SDS011;146;53.448;10.228;2023-04-19T12:17:12;2.30;;;1.97;;
317;SDS011;146;53.448;10.228;2023-04-19T12:19:43;2.70;;;1.50;;
317;SDS011;146;53.448;10.228;2023-04-19T12:22:11;2.23;;;2.10;;
317;SDS011;146;53.448;10.228;2023-04-19T12:24:39;3.23;;;2.00;;
317;SDS011;146;53.448;10.228;2023-04-19T12:27:06;1.90;;;1.80;;
317;SDS011;146;53.448;10.228;2023-04-19T12:29:34;2.00;;;1.87;;
317;SDS011;146;53.448;10.228;2023-04-19T12:32:01;3.00;;;2.00;;
317;SDS011;146;53.448;10.228;2023-04-19T12:34:29;2.33;;;2.10;;
317;SDS011;146;53.448;10.228;2023-04-19T12:36:56;2.73;;;1.83;;
317;SDS011;146;53.448;10.228;2023-04-19T12:39:23;2.33;;;2.00;;
317;SDS011;146;53.448;10.228;2023-04-19T12:41:50;2.03;;;1.87;;
317;SDS011;146;53.448;10.228;2023-04-19T12:44:17;2.07;;;1.87;;
317;SDS011;146;53.448;10.228;2023-04-19T12:46:44;2.23;;;1.73;;
317;SDS011;146;53.448;10.228;2023-04-19T12:49:16;1.70;;;1.60;;
317;SDS011;146;53.448;10.228;2023-04-19T12:51:45;2.83;;;2.63;;
317;SDS011;146;53.448;10.228;2023-04-19T12:54:13;1.87;;;1.60;;
317;SDS011;146;53.448;10.228;2023-04-19T12:56:40;2.10;;;1.90;;
317;SDS011;146;53.448;10.228;2023-04-19T12:59:07;2.77;;;2.07;;
317;SDS011;146;53.448;10.228;2023-04-19T13:01:34;2.10;;;1.60;;
317;SDS011;146;53.448;10.228;2023-04-19T13:04:00;1.87;;;1.67;;
317;SDS011;146;53.448;10.228;2023-04-19T13:06:27;2.20;;;1.90;;
317;SDS011;146;53.448;10.228;2023-04-19T13:08:56;3.07;;;2.77;;
317;SDS011;146;53.448;10.228;2023-04-19T13:11:23;4.87;;;2.53;;
317;SDS011;146;53.448;10.228;2023-04-19T13:13:50;2.00;;;1.80;;
317;SDS011;146;53.448;10.228;2023-04-19T13:16:17;3.93;;;2.00;;
317;SDS011;146;53.448;10.228;2023-04-19T13:18:44;3.30;;;2.60;;
317;SDS011;146;53.448;10.228;2023-04-19T13:21:11;2.00;;;1.73;;
317;SDS011;146;53.448;10.228;2023-04-19T13:23:38;2.20;;;1.93;;
317;SDS011;146;53.448;10.228;2023-04-19T13:26:06;2.10;;;1.80;;
317;SDS011;146;53.448;10.228;2023-04-19T13:28:33;2.80;;;2.13;;
317;SDS011;146;53.448;10.228;2023-04-19T13:31:01;6.60;;;2.30;;
317;SDS011;146;53.448;10.228;2023-04-19T13:33:28;1.70;;;1.57;;
317;SDS011;146;53.448;10.228;2023-04-19T13:35:55;5.23;;;2.23;;
317;SDS011;146;53.448;10.228;2023-04-19T13:38:21;1.97;;;1.80;;
317;SDS011;146;53.448;10.228;2023-04-19T13:40:48;1.70;;;1.60;;
317;SDS011;146;53.448;10.228;2023-04-19T13:43:17;4.00;;;1.70;;
317;SDS011;146;53.448;10.228;2023-04-19T13:45:44;4.53;;;2.17;;
317;SDS011;146;53.448;10.228;2023-04-19T13:48:10;3.83;;;2.03;;
317;SDS011;146;53.448;10.228;2023-04-19T13:50:37;3.43;;;1.80;;
317;SDS011;146;53.448;10.228;2023-04-19T13:53:04;2.00;;;1.80;;
317;SDS011;146;53.448;10.228;2023-04-19T13:55:31;2.77;;;2.57;;
317;SDS011;146;53.448;10.228;2023-04-19T13:57:58;2.50;;;2.30;;
317;SDS011;146;53.448;10.228;2023-04-19T14:00:27;3.77;;;2.10;;
317;SDS011;146;53.448;10.228;2023-04-19T14:02:54;2.90;;;1.50;;
317;SDS011;146;53.448;10.228;2023-04-19T14:05:21;1.67;;;1.57;;
317;SDS011;146;53.448;10.228;2023-04-19T14:07:48;2.10;;;1.90;;
317;SDS011;146;53.448;10.228;2023-04-19T14:10:14;2.80;;;2.20;;
317;SDS011;146;53.448;10.228;2023-04-19T14:12:41;2.23;;;2.03;;
317;SDS011;146;53.448;10.228;2023-04-19T14:15:09;2.33;;;2.13;;
317;SDS011;146;53.448;10.228;2023-04-19T14:17:38;2.20;;;1.87;;
317;SDS011;146;53.448;10.228;2023-04-19T14:20:05;2.60;;;1.67;;
317;SDS011;146;53.448;10.228;2023-04-19T14:22:32;3.80;;;2.50;;
317;SDS011;146;53.448;10.228;2023-04-19T14:24:59;1.90;;;1.80;;
317;SDS011;146;53.448;10.228;2023-04-19T14:27:26;3.37;;;1.97;;
317;SDS011;146;53.448;10.228;2023-04-19T14:29:53;2.10;;;1.90;;
317;SDS011;146;53.448;10.228;2023-04-19T14:32:20;2.47;;;2.13;;
317;SDS011;146;53.448;10.228;2023-04-19T14:34:48;2.10;;;1.80;;
317;SDS011;146;53.448;10.228;2023-04-19T14:37:15;1.60;;;1.50;;
317;SDS011;146;53.448;10.228;2023-04-19T14:39:43;1.87;;;1.77;;
317;SDS011;146;53.448;10.228;2023-04-19T14:42:10;1.90;;;1.80;;
317;SDS011;146;53.448;10.228;2023-04-19T14:44:37;1.70;;;1.60;;
317;SDS011;146;53.448;10.228;2023-04-19T14:47:03;3.03;;;2.00;;
317;SDS011;146;53.448;10.228;2023-04-19T14:49:30;2.87;;;2.37;;
317;SDS011;146;53.448;10.228;2023-04-19T14:51:58;4.93;;;2.30;;
317;SDS011;146;53.448;10.228;2023-04-19T14:54:25;3.60;;;2.00;;
317;SDS011;146;53.448;10.228;2023-04-19T14:56:52;2.27;;;2.07;;
317;SDS011;146;53.448;10.228;2023-04-19T14:59:19;2.47;;;2.10;;
317;SDS011;146;53.448;10.228;2023-04-19T15:01:45;2.23;;;1.73;;
317;SDS011;146;53.448;10.228;2023-04-19T15:04:12;2.40;;;2.20;;
317;SDS011;146;53.448;10.228;2023-04-19T15:06:40;1.90;;;1.63;;
317;SDS011;146;53.448;10.228;2023-04-19T15:09:08;3.47;;;2.13;;
317;SDS011;146;53.448;10.228;2023-04-19T15:11:35;3.03;;;1.93;;
317;SDS011;146;53.448;10.228;2023-04-19T15:14:01;3.60;;;1.70;;
317;SDS011;146;53.448;10.228;2023-04-19T15:16:28;2.00;;;1.90;;
317;SDS011;146;53.448;10.228;2023-04-19T15:18:55;3.17;;;1.90;;
317;SDS011;146;53.448;10.228;2023-04-19T15:21:22;4.97;;;2.00;;
317;SDS011;146;53.448;10.228;2023-04-19T15:23:49;1.83;;;1.70;;
317;SDS011;146;53.448;10.228;2023-04-19T15:26:17;2.17;;;1.90;;
317;SDS011;146;53.448;10.228;2023-04-19T15:28:44;3.07;;;2.07;;
317;SDS011;146;53.448;10.228;2023-04-19T15:31:11;1.80;;;1.70;;
317;SDS011;146;53.448;10.228;2023-04-19T15:33:37;1.97;;;1.87;;
317;SDS011;146;53.448;10.228;2023-04-19T15:36:04;5.63;;;2.30;;
317;SDS011;146;53.448;10.228;2023-04-19T15:38:31;4.70;;;1.60;;
317;SDS011;146;53.448;10.228;2023-04-19T15:40:58;3.67;;;2.30;;
317;SDS011;146;53.448;10.228;2023-04-19T15:43:27;2.57;;;1.90;;
317;SDS011;146;53.448;10.228;2023-04-19T15:45:54;3.53;;;1.83;;
317;SDS011;146;53.448;10.228;2023-04-19T15:48:21;1.97;;;1.60;;
317;SDS011;146;53.448;10.228;2023-04-19T15:50:48;2.43;;;1.60;;